Terminal Aerodrome Forecast
Issued by NWS Duluth, MN

Home | Current Version | Previous Version | Text Only | Print | Product List | Glossary On
Versions: 1 2 3 4 5 6 7 8 9 10 11 12 13 14 15 16 17
000
FTUS43 KDLH 180500
TAFINL
TAF
KINL 180520Z 1806/1906 VRB03KT P6SM SKC
     FM181800 11008KT P6SM BKN200
     FM190100 12010KT P6SM OVC090
     FM190300 14012KT P6SM VCSH SCT030 OVC050=

USA.gov is the U.S. government's official web portal to all federal, state and local government web resources and services.